Time;durP1;ratioP1;P1;durP2;ratioP2;P2;SDS_P1;SDS_P2;PMS_P1;PMS_P2;Temp;Humidity;BMP_temperature;BMP_pressure;BME280_temperature;BME280_humidity;BME280_pressure;Samples;Min_cycle;Max_cycle;Signal;HPM_P1;HPM_P2
2023/09/03 00:02:23;;;;;;;3.30;3.00;;;19.80;65.00;21.50;102435.00;;;;5068895;28;20401;-81
2023/09/03 00:04:50;;;;;;;3.85;3.13;;;19.80;65.00;21.40;102436.00;;;;5069985;28;20205;-82
2023/09/03 00:07:18;;;;;;;3.63;2.80;;;19.80;65.10;21.40;102435.00;;;;5068882;28;20290;-81
2023/09/03 00:09:45;;;;;;;4.30;3.47;;;19.70;65.10;21.40;102431.00;;;;5069849;28;20199;-82
2023/09/03 00:12:12;;;;;;;5.72;3.22;;;19.70;65.10;21.40;102428.00;;;;5073496;28;20214;-81
2023/09/03 00:14:39;;;;;;;5.10;3.25;;;19.70;65.20;21.40;102428.00;;;;5089668;28;20222;-83
2023/09/03 00:17:06;;;;;;;3.10;2.80;;;19.70;65.20;21.40;102432.00;;;;5090177;28;20285;-82
2023/09/03 00:19:33;;;;;;;4.22;2.80;;;19.70;65.20;21.30;102434.00;;;;5089697;28;20194;-81
2023/09/03 00:22:02;;;;;;;2.97;2.67;;;19.60;65.10;21.30;102438.00;;;;5089594;28;20672;-81
2023/09/03 00:24:33;;;;;;;3.40;3.10;;;19.60;65.20;21.20;102446.00;;;;5089475;28;20202;-81
2023/09/03 00:27:00;;;;;;;3.70;3.10;;;19.60;65.20;21.20;102440.00;;;;5077737;28;20252;-81
2023/09/03 00:29:27;;;;;;;6.68;3.10;;;19.60;65.20;21.20;102433.00;;;;5075194;28;20198;-81
2023/09/03 00:31:54;;;;;;;3.92;3.00;;;19.50;65.10;21.20;102426.00;;;;5089899;28;20202;-81
2023/09/03 00:34:21;;;;;;;3.47;2.75;;;19.50;65.10;21.20;102437.00;;;;5089034;28;20206;-81
2023/09/03 00:36:48;;;;;;;4.25;2.72;;;19.50;65.20;21.10;102441.00;;;;5089638;28;20230;-82
2023/09/03 00:39:15;;;;;;;4.03;3.10;;;19.40;65.20;21.10;102438.00;;;;5088501;28;20202;-81
2023/09/03 00:41:43;;;;;;;3.65;3.28;;;19.40;65.20;21.10;102431.00;;;;5089492;28;20195;-82
2023/09/03 00:44:10;;;;;;;3.83;2.92;;;19.40;65.20;21.10;102433.00;;;;5089000;28;20213;-81
2023/09/03 00:46:38;;;;;;;2.95;2.42;;;19.40;65.20;21.00;102436.00;;;;5089522;28;20575;-82
2023/09/03 00:49:05;;;;;;;3.20;2.85;;;19.30;65.10;21.00;102427.00;;;;5089301;28;20282;-82
2023/09/03 00:51:32;;;;;;;3.50;3.20;;;19.30;65.10;20.90;102430.00;;;;5089044;28;20198;-82
2023/09/03 00:54:02;;;;;;;3.60;3.30;;;19.30;65.20;20.90;102431.00;;;;5089642;28;20497;-82
2023/09/03 00:56:29;;;;;;;4.00;3.17;;;19.30;65.20;20.90;102432.00;;;;5088528;28;20280;-82
2023/09/03 00:58:57;;;;;;;3.78;2.85;;;19.20;65.20;20.90;102417.00;;;;5089648;28;20202;-81
2023/09/03 01:01:26;;;;;;;3.72;2.75;;;19.20;65.20;20.80;102429.00;;;;5089024;28;20213;-81
2023/09/03 01:03:56;;;;;;;5.05;3.28;;;19.10;65.10;20.80;102431.00;;;;5088670;28;20242;-81
2023/09/03 01:06:25;;;;;;;4.40;3.50;;;19.10;65.20;20.80;102431.00;;;;5088943;28;20210;-81
2023/09/03 01:08:52;;;;;;;4.85;3.40;;;19.10;65.20;20.80;102436.00;;;;5089191;28;20247;-81
2023/09/03 01:11:36;;;;;;;4.25;3.45;;;19.10;65.20;20.60;102427.00;;;;5088552;28;20191;-81
2023/09/03 01:14:21;;;;;;;3.42;3.13;;;19.00;65.30;20.60;102429.00;;;;5088839;28;20281;-81
2023/09/03 01:16:58;;;;;;;4.63;3.70;;;19.00;65.20;20.60;102430.00;;;;5089037;28;20229;-81
2023/09/03 01:19:56;;;;;;;4.25;2.78;;;19.00;65.20;20.50;102433.00;;;;5088579;28;20198;-81
2023/09/03 01:22:46;;;;;;;3.78;3.30;;;18.90;65.40;20.50;102428.00;;;;5068824;28;20276;-81
2023/09/03 01:25:39;;;;;;;3.45;3.15;;;18.90;65.40;20.40;102422.00;;;;5068605;28;20198;-81
2023/09/03 01:28:24;;;;;;;4.05;3.13;;;18.90;65.60;20.40;102419.00;;;;5068725;28;20199;-82
2023/09/03 01:30:57;;;;;;;3.40;3.10;;;18.80;65.60;20.50;102416.00;;;;5068612;28;20571;-82
2023/09/03 01:33:28;;;;;;;5.25;3.28;;;18.80;65.60;20.50;102426.00;;;;5067951;28;20210;-82
2023/09/03 01:35:59;;;;;;;4.22;3.67;;;18.80;65.80;20.50;102447.00;;;;5068068;28;20234;-81
2023/09/03 01:38:27;;;;;;;4.18;3.05;;;18.80;65.80;20.50;102457.00;;;;5082410;28;20225;-82
2023/09/03 01:40:56;;;;;;;4.10;3.70;;;18.80;65.80;20.50;102455.00;;;;5088294;28;20607;-82
2023/09/03 01:43:24;;;;;;;4.32;3.53;;;18.80;65.80;20.50;102464.00;;;;5088776;28;20198;-82
2023/09/03 01:45:58;;;;;;;3.60;3.00;;;18.70;65.80;20.40;102457.00;;;;5088077;28;20217;-82
2023/09/03 01:48:42;;;;;;;3.55;3.25;;;18.80;65.80;20.30;102454.00;;;;5088196;28;20193;-81
2023/09/03 01:51:22;;;;;;;3.72;3.30;;;18.70;66.40;20.30;102459.00;;;;5088215;28;20194;-82
2023/09/03 01:53:59;;;;;;;3.85;3.30;;;18.70;65.80;20.40;102465.00;;;;5086944;28;20221;-81
2023/09/03 01:56:29;;;;;;;3.63;3.00;;;18.70;65.90;20.40;102464.00;;;;5081571;28;20226;-82
2023/09/03 01:59:11;;;;;;;4.57;3.22;;;18.70;65.80;20.30;102469.00;;;;5088054;28;20198;-81
2023/09/03 02:01:40;;;;;;;6.10;3.75;;;18.70;65.90;20.40;102467.00;;;;5087936;28;20209;-81
2023/09/03 02:04:07;;;;;;;4.47;3.17;;;18.70;65.90;20.40;102465.00;;;;5087283;28;20222;-81
2023/09/03 02:06:34;;;;;;;6.00;3.55;;;18.60;65.80;20.40;102458.00;;;;5087651;28;20206;-81
2023/09/03 02:09:01;;;;;;;3.72;3.35;;;18.60;65.90;20.30;102455.00;;;;5088073;28;20303;-81
2023/09/03 02:11:28;;;;;;;4.22;3.25;;;18.60;66.00;20.30;102464.00;;;;5087905;28;20202;-81
2023/09/03 02:13:56;;;;;;;3.90;3.45;;;18.60;66.00;20.30;102462.00;;;;5087444;28;20817;-81
2023/09/03 02:16:23;;;;;;;3.65;3.20;;;18.60;66.10;20.30;102459.00;;;;5087663;28;20431;-82
2023/09/03 02:18:50;;;;;;;8.98;4.35;;;18.60;66.10;20.30;102448.00;;;;5087616;28;20696;-81
2023/09/03 02:21:17;;;;;;;5.18;4.00;;;18.60;66.20;20.30;102447.00;;;;5085124;28;20202;-81
2023/09/03 02:23:44;;;;;;;4.32;3.90;;;18.50;66.20;20.30;102458.00;;;;5087768;28;20194;-82
2023/09/03 02:26:11;;;;;;;6.78;3.75;;;18.60;66.30;20.30;102456.00;;;;5082628;28;20676;-81
2023/09/03 02:28:38;;;;;;;5.85;4.28;;;18.60;66.30;20.30;102453.00;;;;5075406;28;20210;-81
2023/09/03 02:31:06;;;;;;;3.88;3.47;;;18.60;66.40;20.30;102458.00;;;;5091148;28;20199;-81
2023/09/03 02:33:33;;;;;;;5.45;4.88;;;18.60;66.50;20.30;102451.00;;;;5091762;28;20209;-81
2023/09/03 02:36:00;;;;;;;4.78;4.22;;;18.60;66.40;20.30;102450.00;;;;5090709;28;20233;-81
2023/09/03 02:38:27;;;;;;;4.75;3.65;;;18.60;66.40;20.30;102437.00;;;;5091221;28;20218;-81
2023/09/03 02:40:54;;;;;;;8.48;3.80;;;18.60;66.50;20.30;102426.00;;;;5090964;28;20216;-81
2023/09/03 02:43:21;;;;;;;4.18;3.75;;;18.60;66.40;20.30;102416.00;;;;5091479;28;20198;-82
2023/09/03 02:45:47;;;;;;;4.43;3.75;;;18.50;66.30;20.30;102412.00;;;;5090654;28;20667;-81
2023/09/03 02:48:16;;;;;;;5.35;4.00;;;18.60;66.30;20.30;102402.00;;;;5090750;28;20203;-82
2023/09/03 02:50:43;;;;;;;6.15;3.47;;;18.60;66.30;20.30;102392.00;;;;5091725;28;20206;-82
2023/09/03 02:53:10;;;;;;;4.40;3.97;;;18.50;66.20;20.20;102400.00;;;;5090319;28;20218;-82
2023/09/03 02:55:37;;;;;;;3.85;3.42;;;18.50;66.30;20.20;102402.00;;;;5090715;28;20222;-81
2023/09/03 02:58:04;;;;;;;5.13;4.28;;;18.50;66.20;20.20;102419.00;;;;5090690;28;20186;-81
2023/09/03 03:00:34;;;;;;;4.50;3.78;;;18.60;66.30;20.20;102417.00;;;;5091396;28;20190;-81
2023/09/03 03:03:02;;;;;;;4.78;3.80;;;18.50;66.30;20.20;102415.00;;;;5091634;28;20222;-81
2023/09/03 03:05:30;;;;;;;4.93;4.03;;;18.50;66.30;20.20;102428.00;;;;5091556;28;20678;-81
2023/09/03 03:07:59;;;;;;;4.28;3.80;;;18.50;66.40;20.20;102440.00;;;;5091199;28;20214;-81
2023/09/03 03:10:26;;;;;;;4.88;3.58;;;18.50;66.40;20.20;102435.00;;;;5091387;28;20198;-81
2023/09/03 03:12:52;;;;;;;4.80;3.45;;;18.50;67.10;20.20;102433.00;;;;5090452;28;20206;-81
2023/09/03 03:15:20;;;;;;;5.45;3.67;;;18.50;66.60;20.20;102437.00;;;;5090734;28;20202;-81
2023/09/03 03:17:47;;;;;;;3.67;3.03;;;18.50;66.60;20.20;102442.00;;;;5090725;28;20190;-81
2023/09/03 03:20:13;;;;;;;4.75;4.25;;;18.50;66.50;20.20;102456.00;;;;5090754;28;20208;-81
2023/09/03 03:22:42;;;;;;;4.15;3.75;;;18.50;66.60;20.20;102461.00;;;;5090792;28;20206;-81
2023/09/03 03:25:09;;;;;;;6.38;3.95;;;18.50;66.60;20.20;102471.00;;;;5090356;28;20206;-81
2023/09/03 03:27:37;;;;;;;4.53;3.67;;;18.40;66.40;20.20;102485.00;;;;5091070;28;20686;-81
2023/09/03 03:30:06;;;;;;;5.80;3.72;;;18.40;66.40;20.20;102480.00;;;;5090646;28;20210;-81
2023/09/03 03:32:33;;;;;;;5.88;3.45;;;18.40;66.40;20.20;102477.00;;;;5090970;28;20643;-81
2023/09/03 03:35:00;;;;;;;4.00;3.60;;;18.50;66.40;20.10;102472.00;;;;5090959;28;20536;-81
2023/09/03 03:37:27;;;;;;;3.97;3.35;;;18.40;66.40;20.10;102479.00;;;;5090293;28;20230;-81
2023/09/03 03:39:56;;;;;;;3.88;3.33;;;18.40;66.40;20.10;102479.00;;;;5088794;28;20209;-81
2023/09/03 03:42:23;;;;;;;3.85;3.40;;;18.40;66.40;20.10;102477.00;;;;5090746;28;20194;-81
2023/09/03 03:44:49;;;;;;;4.15;3.72;;;18.40;66.30;20.10;102479.00;;;;5091536;28;20558;-81
2023/09/03 03:47:16;;;;;;;4.15;3.50;;;18.40;66.30;20.10;102467.00;;;;5089517;28;20206;-81
2023/09/03 03:49:43;;;;;;;4.28;3.42;;;18.30;66.20;20.10;102463.00;;;;5090375;28;20565;-81
2023/09/03 03:52:10;;;;;;;4.32;3.88;;;18.40;66.20;20.00;102467.00;;;;5089847;28;20538;-81
2023/09/03 03:54:37;;;;;;;4.85;3.45;;;18.30;66.10;20.00;102460.00;;;;5089830;28;20574;-81
2023/09/03 03:57:06;;;;;;;4.57;3.35;;;18.30;66.20;20.00;102467.00;;;;5090357;28;20230;-82
2023/09/03 03:59:33;;;;;;;3.55;3.25;;;18.30;66.90;20.00;102462.00;;;;5090014;28;20197;-81
2023/09/03 04:02:00;;;;;;;5.55;4.15;;;18.20;66.20;20.00;102474.00;;;;5089938;28;20206;-81
2023/09/03 04:04:27;;;;;;;5.43;3.83;;;18.20;66.30;20.00;102475.00;;;;5089331;28;20206;-82
2023/09/03 04:06:54;;;;;;;4.47;3.85;;;18.20;66.40;20.00;102478.00;;;;5089975;28;20198;-81
2023/09/03 04:09:21;;;;;;;4.50;3.92;;;18.20;66.40;20.00;102486.00;;;;5089540;28;20206;-81
2023/09/03 04:11:48;;;;;;;3.85;3.33;;;18.20;66.40;19.90;102485.00;;;;5088725;28;20587;-82
2023/09/03 04:14:16;;;;;;;3.17;2.88;;;18.20;66.40;19.90;102492.00;;;;5089288;28;20617;-81
2023/09/03 04:16:43;;;;;;;5.18;3.83;;;18.20;66.50;19.90;102488.00;;;;5089479;28;20686;-81
2023/09/03 04:19:11;;;;;;;4.00;3.35;;;18.10;66.50;19.90;102493.00;;;;5089051;28;20210;-81
2023/09/03 04:21:38;;;;;;;5.78;3.90;;;18.10;66.50;19.90;102494.00;;;;5089891;28;20214;-81
2023/09/03 04:24:06;;;;;;;3.92;3.13;;;18.10;66.50;19.90;102485.00;;;;5089157;28;20190;-81
2023/09/03 04:26:33;;;;;;;3.38;3.08;;;18.10;66.60;19.90;102488.00;;;;5082472;28;20203;-81
2023/09/03 04:29:00;;;;;;;3.63;3.10;;;18.10;66.60;19.90;102499.00;;;;5088617;28;20229;-81
2023/09/03 04:31:28;;;;;;;6.32;2.85;;;18.10;66.60;19.80;102486.00;;;;5089105;28;20202;-81
2023/09/03 04:33:55;;;;;;;3.53;2.90;;;18.10;66.60;19.90;102484.00;;;;5089423;28;20294;-81
2023/09/03 04:36:23;;;;;;;3.42;2.88;;;18.10;66.60;19.90;102488.00;;;;5088830;28;20230;-81
2023/09/03 04:38:50;;;;;;;4.95;3.50;;;18.10;66.60;19.90;102497.00;;;;5089558;28;20651;-81
2023/09/03 04:41:17;;;;;;;2.95;2.65;;;18.10;66.60;19.90;102481.00;;;;5088287;28;20213;-82
2023/09/03 04:43:45;;;;;;;4.22;2.88;;;18.10;66.60;19.80;102480.00;;;;5088292;28;20202;-81
2023/09/03 04:46:12;;;;;;;3.40;3.10;;;18.10;66.60;19.80;102484.00;;;;5087666;28;20251;-81
2023/09/03 04:48:40;;;;;;;4.55;3.50;;;18.10;66.60;19.80;102481.00;;;;5089118;28;20206;-81
2023/09/03 04:51:07;;;;;;;4.05;3.10;;;18.10;66.70;19.80;102484.00;;;;5087505;28;20198;-81
2023/09/03 04:53:34;;;;;;;3.80;3.30;;;18.10;66.70;19.80;102490.00;;;;5088835;28;20762;-81
2023/09/03 04:56:03;;;;;;;3.08;2.78;;;18.00;66.60;19.80;102489.00;;;;5088188;28;21039;-81
2023/09/03 04:58:29;;;;;;;3.70;2.72;;;18.00;66.70;19.80;102500.00;;;;5088909;28;20202;-81
2023/09/03 05:00:56;;;;;;;5.43;2.88;;;18.00;66.60;19.80;102504.00;;;;5088479;28;20200;-81
2023/09/03 05:03:23;;;;;;;3.03;2.72;;;18.00;66.60;19.80;102504.00;;;;5087811;28;20323;-81
2023/09/03 05:05:52;;;;;;;5.65;2.95;;;18.10;66.60;19.80;102514.00;;;;5087911;28;20651;-81
2023/09/03 05:08:18;;;;;;;2.90;2.55;;;18.00;66.70;19.80;102510.00;;;;5088201;28;20209;-81
2023/09/03 05:10:45;;;;;;;2.88;2.47;;;18.10;66.70;19.80;102511.00;;;;5088611;28;20675;-81
2023/09/03 05:13:12;;;;;;;4.18;2.90;;;18.00;66.70;19.80;102513.00;;;;5087192;28;20206;-81
2023/09/03 05:15:41;;;;;;;4.05;2.97;;;18.00;66.70;19.80;102521.00;;;;5088506;28;20186;-81
2023/09/03 05:18:08;;;;;;;3.53;3.10;;;18.00;66.70;19.80;102533.00;;;;5087574;28;20770;-81
2023/09/03 05:20:38;;;;;;;3.75;3.28;;;18.00;66.70;19.70;102529.00;;;;5088783;28;20202;-81
2023/09/03 05:23:06;;;;;;;3.47;2.95;;;18.00;66.70;19.80;102539.00;;;;5081844;28;20199;-82
2023/09/03 05:25:33;;;;;;;3.40;2.95;;;18.00;66.70;19.80;102544.00;;;;5068251;28;20203;-81
2023/09/03 05:28:00;;;;;;;4.03;2.58;;;18.00;66.70;19.80;102552.00;;;;5085512;28;20205;-81
2023/09/03 05:30:27;;;;;;;4.65;2.92;;;18.00;66.70;19.80;102554.00;;;;5088155;28;20575;-81
2023/09/03 05:32:54;;;;;;;2.72;2.50;;;18.00;66.70;19.80;102555.00;;;;5087178;28;20201;-81
2023/09/03 05:35:21;;;;;;;3.13;2.55;;;18.00;66.80;19.70;102544.00;;;;5087632;28;20202;-81
2023/09/03 05:37:48;;;;;;;3.58;2.47;;;18.00;66.80;19.80;102552.00;;;;5088053;28;20606;-81
2023/09/03 05:40:17;;;;;;;5.40;2.50;;;18.00;66.80;19.70;102549.00;;;;5087956;28;20210;-81
2023/09/03 05:42:44;;;;;;;3.63;2.63;;;18.00;66.90;19.80;102553.00;;;;5088207;28;20222;-81
2023/09/03 05:45:11;;;;;;;5.13;3.35;;;17.90;66.80;19.80;102552.00;;;;5087345;28;20484;-81
2023/09/03 05:47:38;;;;;;;4.22;3.03;;;18.00;67.00;19.80;102557.00;;;;5088234;28;20206;-82
2023/09/03 05:50:07;;;;;;;3.15;2.85;;;18.00;67.00;19.80;102562.00;;;;5088351;28;20233;-81
2023/09/03 05:52:33;;;;;;;5.70;3.22;;;18.00;67.10;19.80;102573.00;;;;5087672;28;20317;-81
2023/09/03 05:55:00;;;;;;;3.08;2.75;;;18.00;67.10;19.80;102580.00;;;;5088454;28;20198;-81
2023/09/03 05:57:29;;;;;;;3.33;2.95;;;18.00;67.10;19.80;102572.00;;;;5086929;28;20222;-81
2023/09/03 05:59:56;;;;;;;5.20;3.15;;;18.00;67.20;19.80;102576.00;;;;5088301;28;20210;-81
2023/09/03 06:02:23;;;;;;;5.18;3.70;;;18.00;67.20;19.90;102581.00;;;;5087272;28;20687;-81
2023/09/03 06:04:51;;;;;;;3.20;2.67;;;18.00;67.30;19.90;102580.00;;;;5091231;28;20196;-81
2023/09/03 06:07:18;;;;;;;4.28;3.50;;;18.10;67.40;19.90;102585.00;;;;5091246;28;20199;-81
2023/09/03 06:09:45;;;;;;;3.72;3.13;;;18.10;67.40;19.90;102599.00;;;;5091593;28;20209;-81
2023/09/03 06:12:12;;;;;;;3.55;3.25;;;18.10;67.50;20.00;102597.00;;;;5091475;28;20202;-81
2023/09/03 06:14:40;;;;;;;4.55;3.17;;;18.10;67.50;20.00;102603.00;;;;5090908;28;20424;-82
2023/09/03 06:17:07;;;;;;;3.88;3.47;;;18.20;67.60;20.00;102595.00;;;;5091799;28;20704;-81
2023/09/03 06:19:34;;;;;;;4.15;3.78;;;18.20;67.60;20.10;102600.00;;;;5090729;28;20194;-81
2023/09/03 06:22:01;;;;;;;4.60;3.70;;;18.20;67.70;20.10;102606.00;;;;5091982;28;20516;-82
2023/09/03 06:24:28;;;;;;;4.72;4.20;;;18.30;67.80;20.10;102608.00;;;;5091161;28;20209;-82
2023/09/03 06:26:54;;;;;;;5.38;4.40;;;18.30;67.90;20.20;102604.00;;;;5083884;28;20206;-82
2023/09/03 06:29:21;;;;;;;6.07;4.07;;;18.40;67.90;20.20;102611.00;;;;5071271;28;20198;-81
2023/09/03 06:31:50;;;;;;;5.70;4.20;;;18.40;67.90;20.20;102613.00;;;;5070829;28;20197;-81
2023/09/03 06:34:17;;;;;;;6.75;4.88;;;18.50;68.00;20.30;102618.00;;;;5071027;28;20199;-82
2023/09/03 06:36:44;;;;;;;4.85;4.07;;;18.50;68.00;20.30;102615.00;;;;5071654;28;20222;-81
2023/09/03 06:39:11;;;;;;;8.30;4.70;;;18.50;68.10;20.40;102615.00;;;;5070925;28;20203;-81
2023/09/03 06:41:38;;;;;;;7.15;5.63;;;18.60;68.20;20.40;102619.00;;;;5070379;28;20569;-82
2023/09/03 06:44:05;;;;;;;7.18;5.15;;;18.70;68.30;20.50;102617.00;;;;5082013;28;20674;-81
2023/09/03 06:46:32;;;;;;;6.82;5.40;;;18.70;68.30;20.60;102611.00;;;;5090906;28;20202;-81
2023/09/03 06:49:00;;;;;;;8.77;5.07;;;18.80;68.40;20.60;102622.00;;;;5091425;28;20198;-81
2023/09/03 06:51:27;;;;;;;8.48;5.75;;;18.80;68.40;20.70;102623.00;;;;5090034;28;20202;-81
2023/09/03 06:53:54;;;;;;;6.40;5.55;;;18.80;68.40;20.70;102625.00;;;;5091009;28;20226;-82
2023/09/03 06:56:21;;;;;;;6.10;4.78;;;18.90;68.50;20.80;102628.00;;;;5090149;28;20679;-82
2023/09/03 06:58:48;;;;;;;5.82;5.22;;;19.00;68.50;20.80;102640.00;;;;5091557;28;20191;-82
2023/09/03 07:01:17;;;;;;;6.15;5.20;;;19.00;68.50;20.90;102639.00;;;;5090292;28;20218;-82
2023/09/03 07:03:44;;;;;;;5.22;4.43;;;19.10;68.60;20.90;102639.00;;;;5091147;28;20586;-82
2023/09/03 07:06:12;;;;;;;8.57;4.88;;;19.10;68.50;21.00;102644.00;;;;5090952;28;20203;-81
2023/09/03 07:08:39;;;;;;;5.85;4.97;;;19.20;68.50;21.00;102640.00;;;;5091295;28;20206;-81
2023/09/03 07:11:06;;;;;;;6.13;4.80;;;19.20;68.50;21.10;102642.00;;;;5090996;28;20210;-81
2023/09/03 07:13:33;;;;;;;6.72;5.07;;;19.30;68.50;21.20;102645.00;;;;5091335;28;20206;-81
2023/09/03 07:16:04;;;;;;;7.05;5.75;;;19.40;68.50;21.20;102653.00;;;;5090749;28;20195;-81
2023/09/03 07:18:31;;;;;;;5.97;5.47;;;19.40;68.50;21.30;102650.00;;;;5090656;28;20229;-81
2023/09/03 07:21:06;;;;;;;8.80;5.30;;;19.50;68.40;21.30;102651.00;;;;5090530;28;20660;-81
2023/09/03 07:23:34;;;;;;;7.30;5.07;;;19.50;68.40;21.40;102654.00;;;;5091077;28;20209;-81
2023/09/03 07:26:03;;;;;;;5.45;4.93;;;19.60;68.30;21.40;102653.00;;;;5093783;28;20224;-81
2023/09/03 07:28:30;;;;;;;6.20;5.00;;;19.60;68.30;21.50;102661.00;;;;5090737;28;20247;-81
2023/09/03 07:30:57;;;;;;;6.70;5.45;;;19.70;68.40;21.60;102660.00;;;;5090951;28;20205;-81
2023/09/03 07:33:24;;;;;;;6.18;5.20;;;19.80;68.40;21.60;102662.00;;;;5090869;28;20737;-81
2023/09/03 07:35:51;;;;;;;6.25;5.18;;;19.80;68.40;21.70;102650.00;;;;5089882;28;20591;-82
2023/09/03 07:38:18;;;;;;;5.90;5.07;;;19.90;68.40;21.80;102653.00;;;;5089755;28;20226;-82
2023/09/03 07:40:47;;;;;;;11.10;5.32;;;19.90;68.30;21.80;102668.00;;;;5090246;28;20392;-82
2023/09/03 07:43:14;;;;;;;5.85;5.22;;;20.00;68.30;21.90;102671.00;;;;5089525;28;20230;-82
2023/09/03 07:45:41;;;;;;;5.85;4.88;;;20.10;68.40;22.00;102683.00;;;;5090120;28;20579;-82
2023/09/03 07:48:08;;;;;;;5.93;5.28;;;20.20;68.30;22.00;102678.00;;;;5089374;28;20206;-82
2023/09/03 07:50:39;;;;;;;6.90;5.93;;;20.20;68.20;22.10;102694.00;;;;5089614;28;20200;-82
2023/09/03 07:53:06;;;;;;;6.70;5.20;;;20.30;68.00;22.20;102699.00;;;;5089391;28;20230;-82
2023/09/03 07:55:33;;;;;;;6.47;5.07;;;20.40;68.00;22.20;102694.00;;;;5089501;28;20213;-82
2023/09/03 07:58:01;;;;;;;5.57;4.68;;;20.40;68.00;22.30;102691.00;;;;5089395;28;20472;-81
2023/09/03 08:00:29;;;;;;;6.72;5.78;;;20.50;68.00;22.40;102686.00;;;;5090522;28;20201;-82
2023/09/03 08:02:55;;;;;;;6.88;4.55;;;20.60;68.00;22.40;102690.00;;;;5089896;28;20225;-82
2023/09/03 08:05:23;;;;;;;6.00;4.88;;;20.60;68.00;22.50;102686.00;;;;5089411;28;20198;-82
2023/09/03 08:07:50;;;;;;;6.70;4.30;;;20.70;67.90;22.60;102687.00;;;;5089836;28;20712;-81
2023/09/03 08:10:17;;;;;;;6.80;5.25;;;20.80;67.90;22.70;102686.00;;;;5089388;28;20210;-82
2023/09/03 08:12:45;;;;;;;5.60;4.38;;;20.80;67.90;22.70;102678.00;;;;5090098;28;20556;-82
2023/09/03 08:15:13;;;;;;;6.18;5.28;;;21.00;67.90;22.80;102687.00;;;;5090106;28;20194;-81
2023/09/03 08:17:40;;;;;;;6.25;4.68;;;21.10;67.90;22.90;102683.00;;;;5089769;28;20234;-81
2023/09/03 08:20:09;;;;;;;6.38;5.13;;;21.10;67.90;23.00;102689.00;;;;5089831;28;20209;-83
2023/09/03 08:22:37;;;;;;;5.43;4.40;;;21.20;67.90;23.10;102681.00;;;;5089526;28;20572;-82
2023/09/03 08:25:05;;;;;;;9.98;5.55;;;21.30;67.90;23.20;102683.00;;;;5088773;28;20198;-82
2023/09/03 08:27:32;;;;;;;5.93;4.53;;;21.40;67.80;23.30;102690.00;;;;5077411;28;20195;-81
2023/09/03 08:29:59;;;;;;;4.90;4.30;;;21.50;67.70;23.40;102692.00;;;;5069601;28;20199;-82
2023/09/03 08:32:30;;;;;;;8.38;4.97;;;21.60;67.80;23.50;102684.00;;;;5069102;28;20211;-81
2023/09/03 08:34:57;;;;;;;5.90;4.93;;;21.70;67.90;23.60;102682.00;;;;5069179;28;20198;-83
2023/09/03 08:37:26;;;;;;;4.90;3.83;;;21.80;67.70;23.70;102684.00;;;;5069238;28;20253;-83
2023/09/03 08:39:53;;;;;;;5.00;4.15;;;21.90;67.30;23.80;102683.00;;;;5068692;28;20215;-82
2023/09/03 08:42:21;;;;;;;4.38;3.88;;;22.00;67.20;23.90;102683.00;;;;5074543;28;20210;-83
2023/09/03 08:44:53;;;;;;;4.60;3.97;;;22.10;66.90;23.90;102681.00;;;;5089525;28;20194;-82
2023/09/03 08:47:21;;;;;;;4.47;3.60;;;22.20;66.70;24.10;102684.00;;;;5089493;28;20201;-83
2023/09/03 08:49:50;;;;;;;4.72;3.85;;;22.30;66.60;24.20;102684.00;;;;5089250;28;20202;-82
2023/09/03 08:52:17;;;;;;;4.15;3.30;;;22.40;66.50;24.30;102684.00;;;;5088426;28;20225;-82
2023/09/03 08:54:44;;;;;;;3.40;3.10;;;22.50;66.60;24.50;102686.00;;;;5089600;28;20202;-82
2023/09/03 08:57:12;;;;;;;4.80;4.13;;;22.70;66.50;24.60;102694.00;;;;5088330;28;20212;-82
2023/09/03 08:59:39;;;;;;;5.88;4.47;;;22.80;66.30;24.70;102698.00;;;;5088465;28;20198;-82
2023/09/03 09:02:12;;;;;;;7.05;3.75;;;22.90;66.10;24.70;102696.00;;;;5088893;28;20671;-82
2023/09/03 09:04:40;;;;;;;4.20;3.60;;;23.00;66.00;24.90;102695.00;;;;5088878;28;20210;-82
2023/09/03 09:07:11;;;;;;;4.15;3.22;;;23.10;66.00;24.90;102698.00;;;;5088644;28;20202;-82
2023/09/03 09:09:40;;;;;;;4.63;3.85;;;23.20;65.70;25.10;102703.00;;;;5089193;28;20213;-83
2023/09/03 09:12:17;;;;;;;4.22;3.70;;;23.30;65.50;25.10;102706.00;;;;5088947;28;20194;-83
2023/09/03 09:14:53;;;;;;;5.47;3.28;;;23.40;64.80;25.20;102703.00;;;;5088475;28;20798;-82
2023/09/03 09:17:21;;;;;;;3.75;2.58;;;23.50;65.20;25.30;102704.00;;;;5087893;28;20241;-82
2023/09/03 09:19:48;;;;;;;4.13;2.85;;;23.60;64.50;25.40;102699.00;;;;5089066;28;20206;-81
2023/09/03 09:22:16;;;;;;;5.72;3.10;;;23.70;64.20;25.50;102694.00;;;;5087905;28;20194;-82
2023/09/03 09:24:45;;;;;;;2.67;2.47;;;23.80;64.00;25.50;102693.00;;;;5088450;28;20202;-81
2023/09/03 09:27:15;;;;;;;4.53;2.88;;;23.90;64.00;25.60;102698.00;;;;5087579;28;20202;-82
2023/09/03 09:29:42;;;;;;;2.65;2.45;;;23.90;63.70;25.70;102692.00;;;;5088598;28;20274;-82
2023/09/03 09:32:19;;;;;;;4.85;3.13;;;24.00;63.30;25.70;102691.00;;;;5087645;28;20194;-83
2023/09/03 09:34:46;;;;;;;3.58;2.50;;;24.10;62.60;25.90;102696.00;;;;5087768;28;20216;-82
2023/09/03 09:37:15;;;;;;;3.55;2.47;;;24.20;63.00;25.90;102695.00;;;;5087589;28;20535;-82
2023/09/03 09:39:45;;;;;;;2.70;2.10;;;24.30;63.20;26.00;102699.00;;;;5088911;28;20190;-82
2023/09/03 09:42:14;;;;;;;2.85;2.55;;;24.40;62.90;26.10;102698.00;;;;5087719;28;20545;-81
2023/09/03 09:44:57;;;;;;;2.90;2.30;;;24.50;62.40;26.10;102691.00;;;;5088288;28;20210;-82
2023/09/03 09:47:24;;;;;;;2.30;2.10;;;24.60;60.80;26.20;102701.00;;;;5088277;28;20213;-80
2023/09/03 09:49:51;;;;;;;2.72;1.50;;;24.60;61.30;26.30;102703.00;;;;5088146;28;20198;-82
2023/09/03 09:52:20;;;;;;;2.13;1.58;;;24.70;61.00;26.40;102701.00;;;;5087210;28;20234;-81
2023/09/03 09:54:49;;;;;;;1.40;1.30;;;24.80;60.60;26.40;102704.00;;;;5087556;28;20210;-81
2023/09/03 09:57:19;;;;;;;2.15;1.60;;;24.80;60.50;26.50;102700.00;;;;5087432;28;20569;-83
2023/09/03 09:59:53;;;;;;;1.73;1.30;;;24.90;60.40;26.50;102710.00;;;;5087725;28;20195;-83
2023/09/03 10:02:22;;;;;;;2.25;1.63;;;25.00;59.60;26.60;102710.00;;;;5087017;28;20560;-82
2023/09/03 10:04:50;;;;;;;2.35;1.63;;;25.00;59.70;26.70;102710.00;;;;5088490;28;20198;-83
2023/09/03 10:07:19;;;;;;;1.70;1.58;;;25.10;59.70;26.70;102714.00;;;;5087832;28;20209;-82
2023/09/03 10:09:47;;;;;;;1.85;1.35;;;25.20;59.60;26.80;102717.00;;;;5087142;28;20205;-82
2023/09/03 10:12:14;;;;;;;1.52;1.42;;;25.20;59.50;26.90;102709.00;;;;5088019;28;20679;-82
2023/09/03 10:14:42;;;;;;;4.28;1.40;;;25.30;59.70;27.00;102716.00;;;;5086900;28;20228;-83
2023/09/03 10:17:11;;;;;;;2.17;1.67;;;25.30;59.50;27.00;102715.00;;;;5087548;28;20309;-83
2023/09/03 10:19:52;;;;;;;3.45;2.10;;;25.50;59.40;27.00;102717.00;;;;5087766;28;20313;-82
2023/09/03 10:22:23;;;;;;;2.20;1.85;;;25.50;58.50;27.10;102710.00;;;;5087275;28;20195;-82
2023/09/03 10:24:58;;;;;;;1.88;1.70;;;25.60;59.00;27.20;102709.00;;;;5087445;28;20195;-82
2023/09/03 10:27:32;;;;;;;2.55;1.92;;;25.70;59.00;27.20;102711.00;;;;5079603;28;20236;-83
2023/09/03 10:30:06;;;;;;;1.90;1.65;;;25.70;58.90;27.30;102707.00;;;;5067341;28;20202;-81
2023/09/03 10:32:36;;;;;;;2.28;2.00;;;25.80;58.50;27.30;102692.00;;;;5068252;28;20195;-81
2023/09/03 10:35:09;;;;;;;3.10;1.95;;;25.80;58.60;27.30;102698.00;;;;5067218;28;20207;-81
2023/09/03 10:37:39;;;;;;;2.25;2.05;;;25.90;58.30;27.40;102696.00;;;;5067237;28;20202;-83
2023/09/03 10:40:20;;;;;;;2.25;1.90;;;26.00;58.40;27.40;102694.00;;;;5067539;28;20203;-82
2023/09/03 10:42:48;;;;;;;2.55;1.88;;;26.00;57.80;27.50;102692.00;;;;5083725;28;20209;-82
2023/09/03 10:45:15;;;;;;;1.92;1.75;;;26.10;59.00;27.60;102696.00;;;;5087067;28;20219;-82
2023/09/03 10:48:02;;;;;;;1.55;1.27;;;26.10;58.50;27.60;102694.00;;;;5087680;28;20198;-82
2023/09/03 10:50:48;;;;;;;1.65;1.52;;;26.20;57.80;27.60;102693.00;;;;5089675;28;20285;-82
2023/09/03 10:53:36;;;;;;;1.77;1.25;;;26.30;58.00;27.70;102690.00;;;;5090203;28;20710;-81
2023/09/03 10:56:12;;;;;;;1.67;1.00;;;26.30;57.30;27.80;102701.00;;;;5091441;28;20198;-81